sensor_id;sensor_type;location;lat;lon;timestamp;temperature;humidity
26503;DHT22;14177;51.520;6.764;2023-01-26T00:01:17;-0.60;99.90
26503;DHT22;14177;51.520;6.764;2023-01-26T00:03:46;-0.60;99.90
26503;DHT22;14177;51.520;6.764;2023-01-26T00:06:15;-0.60;99.90
26503;DHT22;14177;51.520;6.764;2023-01-26T00:08:46;-0.70;99.90
26503;DHT22;14177;51.520;6.764;2023-01-26T00:11:18;-0.70;99.90
26503;DHT22;14177;51.520;6.764;2023-01-26T00:13:53;-0.70;99.90
26503;DHT22;14177;51.520;6.764;2023-01-26T00:16:21;-0.70;99.90
26503;DHT22;14177;51.520;6.764;2023-01-26T00:18:49;-0.70;99.90
26503;DHT22;14177;51.520;6.764;2023-01-26T00:21:18;-0.70;99.90
26503;DHT22;14177;51.520;6.764;2023-01-26T00:23:47;-0.70;99.90
26503;DHT22;14177;51.520;6.764;2023-01-26T00:26:18;-0.70;99.90
26503;DHT22;14177;51.520;6.764;2023-01-26T00:28:52;-0.70;99.90
26503;DHT22;14177;51.520;6.764;2023-01-26T00:31:24;-0.70;99.90
26503;DHT22;14177;51.520;6.764;2023-01-26T00:33:55;-0.70;99.90
26503;DHT22;14177;51.520;6.764;2023-01-26T00:36:23;-0.60;99.90
26503;DHT22;14177;51.520;6.764;2023-01-26T00:38:50;-0.60;99.90
26503;DHT22;14177;51.520;6.764;2023-01-26T00:41:17;-0.60;99.90
26503;DHT22;14177;51.520;6.764;2023-01-26T00:44:03;-0.60;99.90
26503;DHT22;14177;51.520;6.764;2023-01-26T00:46:30;-0.70;99.90
26503;DHT22;14177;51.520;6.764;2023-01-26T00:48:59;-0.60;99.90
26503;DHT22;14177;51.520;6.764;2023-01-26T00:51:26;-0.60;99.90
26503;DHT22;14177;51.520;6.764;2023-01-26T00:53:53;-0.60;99.90
26503;DHT22;14177;51.520;6.764;2023-01-26T00:56:20;-0.60;99.90
26503;DHT22;14177;51.520;6.764;2023-01-26T00:58:47;-0.60;99.90
26503;DHT22;14177;51.520;6.764;2023-01-26T01:01:15;-0.60;99.90
26503;DHT22;14177;51.520;6.764;2023-01-26T01:03:42;-0.50;99.90
26503;DHT22;14177;51.520;6.764;2023-01-26T01:06:10;-0.50;99.90
26503;DHT22;14177;51.520;6.764;2023-01-26T01:08:37;-0.50;99.90
26503;DHT22;14177;51.520;6.764;2023-01-26T01:11:07;-0.50;99.90
26503;DHT22;14177;51.520;6.764;2023-01-26T01:13:36;-0.50;99.90
26503;DHT22;14177;51.520;6.764;2023-01-26T01:16:05;-0.50;99.90
26503;DHT22;14177;51.520;6.764;2023-01-26T01:18:34;-0.40;99.90
26503;DHT22;14177;51.520;6.764;2023-01-26T01:21:15;-0.40;99.90
26503;DHT22;14177;51.520;6.764;2023-01-26T01:23:43;-0.40;99.90
26503;DHT22;14177;51.520;6.764;2023-01-26T01:26:10;-0.40;99.90
26503;DHT22;14177;51.520;6.764;2023-01-26T01:28:39;-0.40;99.90
26503;DHT22;14177;51.520;6.764;2023-01-26T01:31:09;-0.40;99.90
26503;DHT22;14177;51.520;6.764;2023-01-26T01:33:38;-0.40;99.90
26503;DHT22;14177;51.520;6.764;2023-01-26T01:36:08;-0.40;99.90
26503;DHT22;14177;51.520;6.764;2023-01-26T01:38:37;-0.40;99.90
26503;DHT22;14177;51.520;6.764;2023-01-26T01:41:05;-0.40;99.90
26503;DHT22;14177;51.520;6.764;2023-01-26T01:43:34;-0.40;99.90
26503;DHT22;14177;51.520;6.764;2023-01-26T01:46:14;-0.40;99.90
26503;DHT22;14177;51.520;6.764;2023-01-26T01:52:10;-0.40;99.90
26503;DHT22;14177;51.520;6.764;2023-01-26T01:54:46;-0.40;99.90
26503;DHT22;14177;51.520;6.764;2023-01-26T01:57:26;-0.40;99.90
26503;DHT22;14177;51.520;6.764;2023-01-26T02:00:08;-0.40;99.90
26503;DHT22;14177;51.520;6.764;2023-01-26T02:02:42;-0.40;99.90
26503;DHT22;14177;51.520;6.764;2023-01-26T02:05:21;-0.40;99.90
26503;DHT22;14177;51.520;6.764;2023-01-26T02:07:53;-0.40;99.90
26503;DHT22;14177;51.520;6.764;2023-01-26T02:10:20;-0.40;99.90
26503;DHT22;14177;51.520;6.764;2023-01-26T02:12:50;-0.40;99.90
26503;DHT22;14177;51.520;6.764;2023-01-26T02:15:22;-0.40;99.90
26503;DHT22;14177;51.520;6.764;2023-01-26T02:17:51;-0.30;99.90
26503;DHT22;14177;51.520;6.764;2023-01-26T02:20:27;-0.30;99.90
26503;DHT22;14177;51.520;6.764;2023-01-26T02:23:24;-0.30;99.90
26503;DHT22;14177;51.520;6.764;2023-01-26T02:26:19;-0.30;99.90
26503;DHT22;14177;51.520;6.764;2023-01-26T02:28:50;-0.30;99.90
26503;DHT22;14177;51.520;6.764;2023-01-26T02:31:17;-0.30;99.90
26503;DHT22;14177;51.520;6.764;2023-01-26T02:33:46;-0.30;99.90
26503;DHT22;14177;51.520;6.764;2023-01-26T02:41:28;-0.30;99.90
26503;DHT22;14177;51.520;6.764;2023-01-26T02:44:14;-0.30;99.90
26503;DHT22;14177;51.520;6.764;2023-01-26T02:46:41;-0.30;99.90
26503;DHT22;14177;51.520;6.764;2023-01-26T02:49:08;-0.30;99.90
26503;DHT22;14177;51.520;6.764;2023-01-26T02:51:54;-0.30;99.90
26503;DHT22;14177;51.520;6.764;2023-01-26T02:54:21;-0.30;99.90
26503;DHT22;14177;51.520;6.764;2023-01-26T02:57:06;-0.20;99.90
26503;DHT22;14177;51.520;6.764;2023-01-26T02:59:33;-0.20;99.90
26503;DHT22;14177;51.520;6.764;2023-01-26T03:02:00;-0.20;99.90
26503;DHT22;14177;51.520;6.764;2023-01-26T03:04:27;-0.20;99.90
26503;DHT22;14177;51.520;6.764;2023-01-26T03:06:54;-0.20;99.90
26503;DHT22;14177;51.520;6.764;2023-01-26T03:09:22;-0.20;99.90
26503;DHT22;14177;51.520;6.764;2023-01-26T03:11:50;-0.20;99.90
26503;DHT22;14177;51.520;6.764;2023-01-26T03:14:17;-0.20;99.90
26503;DHT22;14177;51.520;6.764;2023-01-26T03:16:44;-0.20;99.90
26503;DHT22;14177;51.520;6.764;2023-01-26T03:19:12;-0.20;99.90
26503;DHT22;14177;51.520;6.764;2023-01-26T03:22:04;-0.20;99.90
26503;DHT22;14177;51.520;6.764;2023-01-26T03:24:50;-0.10;99.90
26503;DHT22;14177;51.520;6.764;2023-01-26T03:27:43;-0.10;99.90
26503;DHT22;14177;51.520;6.764;2023-01-26T03:30:16;-0.10;99.90
26503;DHT22;14177;51.520;6.764;2023-01-26T03:32:46;-0.10;99.90
26503;DHT22;14177;51.520;6.764;2023-01-26T03:35:15;-0.10;99.90
26503;DHT22;14177;51.520;6.764;2023-01-26T03:37:49;-0.20;99.90
26503;DHT22;14177;51.520;6.764;2023-01-26T03:40:37;-0.20;99.90
26503;DHT22;14177;51.520;6.764;2023-01-26T03:43:23;-0.20;99.90
26503;DHT22;14177;51.520;6.764;2023-01-26T03:46:09;-0.20;99.90
26503;DHT22;14177;51.520;6.764;2023-01-26T03:48:54;-0.20;99.90
26503;DHT22;14177;51.520;6.764;2023-01-26T03:51:39;-0.10;99.90
26503;DHT22;14177;51.520;6.764;2023-01-26T03:54:25;-0.20;99.90
26503;DHT22;14177;51.520;6.764;2023-01-26T03:57:10;-0.30;99.90
26503;DHT22;14177;51.520;6.764;2023-01-26T03:59:37;-0.30;99.90
26503;DHT22;14177;51.520;6.764;2023-01-26T04:02:10;-0.30;99.90
26503;DHT22;14177;51.520;6.764;2023-01-26T04:04:58;-0.30;99.90
26503;DHT22;14177;51.520;6.764;2023-01-26T04:07:47;-0.30;99.90
26503;DHT22;14177;51.520;6.764;2023-01-26T04:10:32;-0.30;99.90
26503;DHT22;14177;51.520;6.764;2023-01-26T04:13:02;-0.30;99.90
26503;DHT22;14177;51.520;6.764;2023-01-26T04:15:53;-0.30;99.90
26503;DHT22;14177;51.520;6.764;2023-01-26T04:18:39;-0.20;99.90
26503;DHT22;14177;51.520;6.764;2023-01-26T04:21:24;-0.20;99.90
26503;DHT22;14177;51.520;6.764;2023-01-26T04:23:57;-0.20;99.90
26503;DHT22;14177;51.520;6.764;2023-01-26T04:26:26;-0.20;99.90
26503;DHT22;14177;51.520;6.764;2023-01-26T04:29:11;-0.20;99.90
26503;DHT22;14177;51.520;6.764;2023-01-26T04:31:41;-0.20;99.90
26503;DHT22;14177;51.520;6.764;2023-01-26T04:34:12;-0.20;99.90
26503;DHT22;14177;51.520;6.764;2023-01-26T04:36:41;-0.20;99.90
26503;DHT22;14177;51.520;6.764;2023-01-26T04:39:09;-0.30;99.90
26503;DHT22;14177;51.520;6.764;2023-01-26T04:41:40;-0.30;99.90
26503;DHT22;14177;51.520;6.764;2023-01-26T04:44:11;-0.20;99.90
26503;DHT22;14177;51.520;6.764;2023-01-26T04:46:38;-0.20;99.90
26503;DHT22;14177;51.520;6.764;2023-01-26T04:49:05;-0.20;99.90
26503;DHT22;14177;51.520;6.764;2023-01-26T04:51:33;-0.20;99.90
26503;DHT22;14177;51.520;6.764;2023-01-26T04:54:00;-0.20;99.90
26503;DHT22;14177;51.520;6.764;2023-01-26T04:56:33;-0.20;99.90
26503;DHT22;14177;51.520;6.764;2023-01-26T04:59:05;-0.10;99.90
26503;DHT22;14177;51.520;6.764;2023-01-26T05:01:34;-0.10;99.90
26503;DHT22;14177;51.520;6.764;2023-01-26T05:04:05;-0.10;99.90
26503;DHT22;14177;51.520;6.764;2023-01-26T05:06:34;-0.10;99.90
26503;DHT22;14177;51.520;6.764;2023-01-26T05:09:01;-0.10;99.90
26503;DHT22;14177;51.520;6.764;2023-01-26T05:11:30;-0.10;99.90
26503;DHT22;14177;51.520;6.764;2023-01-26T05:14:13;-0.10;99.90
26503;DHT22;14177;51.520;6.764;2023-01-26T05:17:00;-0.20;99.90
26503;DHT22;14177;51.520;6.764;2023-01-26T05:19:39;-0.20;99.90
26503;DHT22;14177;51.520;6.764;2023-01-26T05:22:25;-0.20;99.90
26503;DHT22;14177;51.520;6.764;2023-01-26T05:25:10;-0.20;99.90
26503;DHT22;14177;51.520;6.764;2023-01-26T05:27:49;-0.20;99.90
26503;DHT22;14177;51.520;6.764;2023-01-26T05:30:18;-0.20;99.90
26503;DHT22;14177;51.520;6.764;2023-01-26T05:32:45;-0.20;99.90
26503;DHT22;14177;51.520;6.764;2023-01-26T05:35:13;-0.10;99.90
26503;DHT22;14177;51.520;6.764;2023-01-26T05:37:40;-0.10;99.90
26503;DHT22;14177;51.520;6.764;2023-01-26T05:40:12;-0.10;99.90
26503;DHT22;14177;51.520;6.764;2023-01-26T05:42:41;0.00;99.90
26503;DHT22;14177;51.520;6.764;2023-01-26T05:45:28;0.00;99.90
26503;DHT22;14177;51.520;6.764;2023-01-26T05:47:59;0.00;99.90
26503;DHT22;14177;51.520;6.764;2023-01-26T05:50:26;0.00;99.90
26503;DHT22;14177;51.520;6.764;2023-01-26T05:53:12;0.00;99.90
26503;DHT22;14177;51.520;6.764;2023-01-26T05:55:40;0.00;99.90
26503;DHT22;14177;51.520;6.764;2023-01-26T05:58:09;0.00;99.90
26503;DHT22;14177;51.520;6.764;2023-01-26T06:00:37;0.10;99.90
26503;DHT22;14177;51.520;6.764;2023-01-26T06:03:09;0.10;99.90
26503;DHT22;14177;51.520;6.764;2023-01-26T06:05:36;0.10;99.90
26503;DHT22;14177;51.520;6.764;2023-01-26T06:08:16;0.10;99.90
26503;DHT22;14177;51.520;6.764;2023-01-26T06:10:58;0.10;99.90
26503;DHT22;14177;51.520;6.764;2023-01-26T06:13:39;0.10;99.90
26503;DHT22;14177;51.520;6.764;2023-01-26T06:16:19;0.10;99.90
26503;DHT22;14177;51.520;6.764;2023-01-26T06:18:47;0.10;99.90
26503;DHT22;14177;51.520;6.764;2023-01-26T06:21:16;0.10;99.90
26503;DHT22;14177;51.520;6.764;2023-01-26T06:23:43;0.20;99.90
26503;DHT22;14177;51.520;6.764;2023-01-26T06:26:11;0.20;99.90
26503;DHT22;14177;51.520;6.764;2023-01-26T06:28:38;0.20;99.90
26503;DHT22;14177;51.520;6.764;2023-01-26T06:31:07;0.20;99.90
26503;DHT22;14177;51.520;6.764;2023-01-26T06:33:35;0.20;99.90
26503;DHT22;14177;51.520;6.764;2023-01-26T06:36:07;0.10;99.90
26503;DHT22;14177;51.520;6.764;2023-01-26T06:38:37;0.10;99.90
26503;DHT22;14177;51.520;6.764;2023-01-26T06:41:06;0.10;99.90
26503;DHT22;14177;51.520;6.764;2023-01-26T06:43:35;0.10;99.90
26503;DHT22;14177;51.520;6.764;2023-01-26T06:46:04;0.20;99.90
26503;DHT22;14177;51.520;6.764;2023-01-26T06:48:34;0.10;99.90
26503;DHT22;14177;51.520;6.764;2023-01-26T06:53:47;0.10;99.90
26503;DHT22;14177;51.520;6.764;2023-01-26T06:56:47;0.10;99.90
26503;DHT22;14177;51.520;6.764;2023-01-26T06:59:14;0.10;99.90
26503;DHT22;14177;51.520;6.764;2023-01-26T07:02:00;0.10;99.90
26503;DHT22;14177;51.520;6.764;2023-01-26T07:04:27;0.10;99.90
26503;DHT22;14177;51.520;6.764;2023-01-26T07:06:54;0.10;99.90
26503;DHT22;14177;51.520;6.764;2023-01-26T07:09:20;0.10;99.90
26503;DHT22;14177;51.520;6.764;2023-01-26T07:11:47;0.10;99.90
26503;DHT22;14177;51.520;6.764;2023-01-26T07:14:15;0.20;99.90
26503;DHT22;14177;51.520;6.764;2023-01-26T07:16:42;0.20;99.90
26503;DHT22;14177;51.520;6.764;2023-01-26T07:19:09;0.20;99.90
26503;DHT22;14177;51.520;6.764;2023-01-26T07:21:36;0.20;99.90
26503;DHT22;14177;51.520;6.764;2023-01-26T07:24:05;0.20;99.90
26503;DHT22;14177;51.520;6.764;2023-01-26T07:26:33;0.20;99.90
26503;DHT22;14177;51.520;6.764;2023-01-26T07:29:00;0.20;99.90
26503;DHT22;14177;51.520;6.764;2023-01-26T07:31:27;0.20;99.90
26503;DHT22;14177;51.520;6.764;2023-01-26T07:33:54;0.20;99.90
26503;DHT22;14177;51.520;6.764;2023-01-26T07:36:21;0.20;99.90
26503;DHT22;14177;51.520;6.764;2023-01-26T07:38:48;0.20;99.90
26503;DHT22;14177;51.520;6.764;2023-01-26T07:41:15;0.20;99.90
26503;DHT22;14177;51.520;6.764;2023-01-26T07:43:42;0.20;99.90
26503;DHT22;14177;51.520;6.764;2023-01-26T07:46:10;0.20;99.90
26503;DHT22;14177;51.520;6.764;2023-01-26T07:48:37;0.20;99.90
26503;DHT22;14177;51.520;6.764;2023-01-26T07:51:07;0.20;99.90
26503;DHT22;14177;51.520;6.764;2023-01-26T07:53:37;0.20;99.90
26503;DHT22;14177;51.520;6.764;2023-01-26T07:56:11;0.20;99.90
26503;DHT22;14177;51.520;6.764;2023-01-26T07:58:39;0.20;99.90
26503;DHT22;14177;51.520;6.764;2023-01-26T08:01:12;0.30;99.90
26503;DHT22;14177;51.520;6.764;2023-01-26T08:03:41;0.30;99.90
26503;DHT22;14177;51.520;6.764;2023-01-26T08:06:12;0.40;99.90
26503;DHT22;14177;51.520;6.764;2023-01-26T08:08:42;0.40;99.90
26503;DHT22;14177;51.520;6.764;2023-01-26T08:11:10;0.40;99.90
26503;DHT22;14177;51.520;6.764;2023-01-26T08:13:38;0.50;99.90
26503;DHT22;14177;51.520;6.764;2023-01-26T08:16:09;0.50;99.90
26503;DHT22;14177;51.520;6.764;2023-01-26T08:18:44;0.50;99.90
26503;DHT22;14177;51.520;6.764;2023-01-26T08:21:14;0.50;99.90
26503;DHT22;14177;51.520;6.764;2023-01-26T08:23:47;0.50;99.90
26503;DHT22;14177;51.520;6.764;2023-01-26T08:26:16;0.50;99.90
26503;DHT22;14177;51.520;6.764;2023-01-26T08:28:45;0.50;99.90
26503;DHT22;14177;51.520;6.764;2023-01-26T08:31:17;0.50;99.90
26503;DHT22;14177;51.520;6.764;2023-01-26T08:33:47;0.50;99.90
26503;DHT22;14177;51.520;6.764;2023-01-26T08:36:17;0.50;99.90
26503;DHT22;14177;51.520;6.764;2023-01-26T08:38:48;0.50;99.90
26503;DHT22;14177;51.520;6.764;2023-01-26T08:41:17;0.50;99.90
26503;DHT22;14177;51.520;6.764;2023-01-26T08:43:44;0.50;99.90
26503;DHT22;14177;51.520;6.764;2023-01-26T08:46:11;0.50;99.90
26503;DHT22;14177;51.520;6.764;2023-01-26T08:48:39;0.50;99.90
26503;DHT22;14177;51.520;6.764;2023-01-26T08:51:06;0.50;99.90
26503;DHT22;14177;51.520;6.764;2023-01-26T08:53:35;0.50;99.90
26503;DHT22;14177;51.520;6.764;2023-01-26T08:56:04;0.50;99.90
26503;DHT22;14177;51.520;6.764;2023-01-26T08:58:33;0.60;99.90
26503;DHT22;14177;51.520;6.764;2023-01-26T09:01:05;0.60;99.90
26503;DHT22;14177;51.520;6.764;2023-01-26T09:03:33;0.60;99.90
26503;DHT22;14177;51.520;6.764;2023-01-26T09:06:02;0.60;99.90
26503;DHT22;14177;51.520;6.764;2023-01-26T09:08:30;0.60;99.90
26503;DHT22;14177;51.520;6.764;2023-01-26T09:10:58;0.60;99.90
26503;DHT22;14177;51.520;6.764;2023-01-26T09:13:25;0.70;99.90
26503;DHT22;14177;51.520;6.764;2023-01-26T09:15:53;0.70;99.90
26503;DHT22;14177;51.520;6.764;2023-01-26T09:18:20;0.70;99.90
26503;DHT22;14177;51.520;6.764;2023-01-26T09:20:47;0.70;99.90
26503;DHT22;14177;51.520;6.764;2023-01-26T09:23:16;0.70;99.90
26503;DHT22;14177;51.520;6.764;2023-01-26T09:25:53;0.80;99.90
26503;DHT22;14177;51.520;6.764;2023-01-26T09:28:20;0.80;99.90
26503;DHT22;14177;51.520;6.764;2023-01-26T09:30:51;0.80;99.90
26503;DHT22;14177;51.520;6.764;2023-01-26T09:33:18;0.80;99.90
26503;DHT22;14177;51.520;6.764;2023-01-26T09:35:49;0.90;99.90
26503;DHT22;14177;51.520;6.764;2023-01-26T09:38:16;0.90;99.90
26503;DHT22;14177;51.520;6.764;2023-01-26T09:40:52;0.90;99.90
26503;DHT22;14177;51.520;6.764;2023-01-26T09:43:46;1.00;99.90
26503;DHT22;14177;51.520;6.764;2023-01-26T09:52:25;1.00;99.90
26503;DHT22;14177;51.520;6.764;2023-01-26T09:54:58;1.10;99.90
26503;DHT22;14177;51.520;6.764;2023-01-26T09:57:48;1.10;99.90
26503;DHT22;14177;51.520;6.764;2023-01-26T10:00:27;1.20;99.90
26503;DHT22;14177;51.520;6.764;2023-01-26T10:09:19;1.20;99.90
26503;DHT22;14177;51.520;6.764;2023-01-26T10:11:57;1.20;99.90
26503;DHT22;14177;51.520;6.764;2023-01-26T10:14:58;1.20;99.90
26503;DHT22;14177;51.520;6.764;2023-01-26T10:17:38;1.30;99.90
26503;DHT22;14177;51.520;6.764;2023-01-26T10:23:22;1.30;99.90
26503;DHT22;14177;51.520;6.764;2023-01-26T10:25:51;1.30;99.90
26503;DHT22;14177;51.520;6.764;2023-01-26T10:28:32;1.30;99.90
26503;DHT22;14177;51.520;6.764;2023-01-26T10:31:30;1.30;99.90
26503;DHT22;14177;51.520;6.764;2023-01-26T10:36:46;1.30;99.90
26503;DHT22;14177;51.520;6.764;2023-01-26T10:39:15;1.30;99.90
26503;DHT22;14177;51.520;6.764;2023-01-26T10:41:57;1.30;99.90
26503;DHT22;14177;51.520;6.764;2023-01-26T10:44:33;1.30;99.90
26503;DHT22;14177;51.520;6.764;2023-01-26T10:47:15;1.30;99.90
26503;DHT22;14177;51.520;6.764;2023-01-26T10:49:43;1.30;99.90
26503;DHT22;14177;51.520;6.764;2023-01-26T10:52:23;1.30;99.90
26503;DHT22;14177;51.520;6.764;2023-01-26T10:55:11;1.40;99.90
26503;DHT22;14177;51.520;6.764;2023-01-26T10:57:45;1.40;99.90
26503;DHT22;14177;51.520;6.764;2023-01-26T11:00:21;1.50;99.90
26503;DHT22;14177;51.520;6.764;2023-01-26T11:02:52;1.50;99.90
26503;DHT22;14177;51.520;6.764;2023-01-26T11:05:22;1.50;99.90
26503;DHT22;14177;51.520;6.764;2023-01-26T11:07:52;1.60;99.90
26503;DHT22;14177;51.520;6.764;2023-01-26T11:10:32;1.60;99.90
26503;DHT22;14177;51.520;6.764;2023-01-26T11:13:14;1.60;99.90
26503;DHT22;14177;51.520;6.764;2023-01-26T11:15:47;1.70;99.90
26503;DHT22;14177;51.520;6.764;2023-01-26T11:18:20;1.70;99.90
26503;DHT22;14177;51.520;6.764;2023-01-26T11:20:49;1.70;99.90
26503;DHT22;14177;51.520;6.764;2023-01-26T11:41:16;1.70;99.90
26503;DHT22;14177;51.520;6.764;2023-01-26T11:44:09;1.70;99.90
26503;DHT22;14177;51.520;6.764;2023-01-26T11:47:12;1.70;99.90
26503;DHT22;14177;51.520;6.764;2023-01-26T11:50:02;1.70;99.90
26503;DHT22;14177;51.520;6.764;2023-01-26T11:52:52;1.80;99.90
26503;DHT22;14177;51.520;6.764;2023-01-26T12:01:12;1.70;99.90
26503;DHT22;14177;51.520;6.764;2023-01-26T12:03:51;1.70;99.90
26503;DHT22;14177;51.520;6.764;2023-01-26T12:11:57;1.80;99.90
26503;DHT22;14177;51.520;6.764;2023-01-26T12:17:19;1.80;99.90
26503;DHT22;14177;51.520;6.764;2023-01-26T12:25:44;1.90;99.90
26503;DHT22;14177;51.520;6.764;2023-01-26T12:28:39;1.80;99.90
26503;DHT22;14177;51.520;6.764;2023-01-26T12:34:13;1.90;99.90
26503;DHT22;14177;51.520;6.764;2023-01-26T12:43:15;1.90;99.90
26503;DHT22;14177;51.520;6.764;2023-01-26T12:46:07;1.90;99.90
26503;DHT22;14177;51.520;6.764;2023-01-26T12:48:37;1.90;99.90
26503;DHT22;14177;51.520;6.764;2023-01-26T12:51:28;1.90;99.90
26503;DHT22;14177;51.520;6.764;2023-01-26T12:54:43;2.00;99.90
26503;DHT22;14177;51.520;6.764;2023-01-26T12:57:15;2.00;99.90
26503;DHT22;14177;51.520;6.764;2023-01-26T12:59:46;2.00;99.90
26503;DHT22;14177;51.520;6.764;2023-01-26T13:04:50;2.00;99.90
26503;DHT22;14177;51.520;6.764;2023-01-26T13:07:45;2.10;99.90
26503;DHT22;14177;51.520;6.764;2023-01-26T13:13:24;2.10;99.90
26503;DHT22;14177;51.520;6.764;2023-01-26T13:19:04;2.20;99.90
26503;DHT22;14177;51.520;6.764;2023-01-26T13:22:01;2.30;99.90
26503;DHT22;14177;51.520;6.764;2023-01-26T13:24:41;2.30;99.90
26503;DHT22;14177;51.520;6.764;2023-01-26T13:27:53;2.40;99.90
26503;DHT22;14177;51.520;6.764;2023-01-26T13:30:27;2.50;99.90
26503;DHT22;14177;51.520;6.764;2023-01-26T13:33:22;2.50;99.90
26503;DHT22;14177;51.520;6.764;2023-01-26T13:36:13;2.60;99.90
26503;DHT22;14177;51.520;6.764;2023-01-26T13:39:00;2.70;99.90
26503;DHT22;14177;51.520;6.764;2023-01-26T13:41:52;2.70;99.90
26503;DHT22;14177;51.520;6.764;2023-01-26T13:44:48;2.80;99.90
26503;DHT22;14177;51.520;6.764;2023-01-26T13:47:41;2.90;99.90
26503;DHT22;14177;51.520;6.764;2023-01-26T13:50:28;3.00;99.90
26503;DHT22;14177;51.520;6.764;2023-01-26T13:53:22;3.10;99.90
26503;DHT22;14177;51.520;6.764;2023-01-26T13:56:27;3.10;99.90
26503;DHT22;14177;51.520;6.764;2023-01-26T14:01:46;3.30;99.90
26503;DHT22;14177;51.520;6.764;2023-01-26T14:04:26;3.30;99.90
26503;DHT22;14177;51.520;6.764;2023-01-26T14:07:16;3.30;99.90
26503;DHT22;14177;51.520;6.764;2023-01-26T14:10:06;3.40;99.90
26503;DHT22;14177;51.520;6.764;2023-01-26T14:12:51;3.50;99.90
26503;DHT22;14177;51.520;6.764;2023-01-26T14:15:31;3.60;99.90
26503;DHT22;14177;51.520;6.764;2023-01-26T14:18:20;3.70;99.90
26503;DHT22;14177;51.520;6.764;2023-01-26T14:21:13;3.70;99.90
26503;DHT22;14177;51.520;6.764;2023-01-26T14:24:10;3.70;99.90
26503;DHT22;14177;51.520;6.764;2023-01-26T14:27:53;3.80;99.90
26503;DHT22;14177;51.520;6.764;2023-01-26T14:30:30;3.80;99.90
26503;DHT22;14177;51.520;6.764;2023-01-26T14:33:14;3.80;99.90
26503;DHT22;14177;51.520;6.764;2023-01-26T14:35:59;3.80;99.90
26503;DHT22;14177;51.520;6.764;2023-01-26T14:38:50;3.80;99.90
26503;DHT22;14177;51.520;6.764;2023-01-26T14:41:25;3.90;99.90
26503;DHT22;14177;51.520;6.764;2023-01-26T14:44:08;3.90;99.90
26503;DHT22;14177;51.520;6.764;2023-01-26T14:50:25;3.90;99.90
26503;DHT22;14177;51.520;6.764;2023-01-26T14:53:22;3.90;99.90
26503;DHT22;14177;51.520;6.764;2023-01-26T14:56:17;4.00;99.90
26503;DHT22;14177;51.520;6.764;2023-01-26T14:59:07;4.00;99.90
26503;DHT22;14177;51.520;6.764;2023-01-26T15:02:00;4.00;99.90
26503;DHT22;14177;51.520;6.764;2023-01-26T15:04:47;4.00;99.90
26503;DHT22;14177;51.520;6.764;2023-01-26T15:07:59;4.10;99.90
26503;DHT22;14177;51.520;6.764;2023-01-26T15:10:57;4.20;99.90
26503;DHT22;14177;51.520;6.764;2023-01-26T15:13:53;4.20;99.90
26503;DHT22;14177;51.520;6.764;2023-01-26T15:16:27;4.30;99.90
26503;DHT22;14177;51.520;6.764;2023-01-26T15:19:04;4.40;99.90
26503;DHT22;14177;51.520;6.764;2023-01-26T15:21:35;4.50;99.90
26503;DHT22;14177;51.520;6.764;2023-01-26T15:24:13;4.90;99.90
26503;DHT22;14177;51.520;6.764;2023-01-26T15:26:43;5.40;99.90
26503;DHT22;14177;51.520;6.764;2023-01-26T15:29:32;5.70;99.90
26503;DHT22;14177;51.520;6.764;2023-01-26T15:32:03;5.70;99.90
26503;DHT22;14177;51.520;6.764;2023-01-26T15:34:38;5.60;99.90
26503;DHT22;14177;51.520;6.764;2023-01-26T15:37:30;5.40;99.90
26503;DHT22;14177;51.520;6.764;2023-01-26T15:45:19;5.20;99.90
26503;DHT22;14177;51.520;6.764;2023-01-26T15:49:28;5.00;99.90
26503;DHT22;14177;51.520;6.764;2023-01-26T16:09:40;4.70;99.90
26503;DHT22;14177;51.520;6.764;2023-01-26T16:30:39;4.60;99.90
26503;DHT22;14177;51.520;6.764;2023-01-26T16:34:12;4.60;99.90
26503;DHT22;14177;51.520;6.764;2023-01-26T16:36:52;4.50;99.90
26503;DHT22;14177;51.520;6.764;2023-01-26T16:39:21;4.50;99.90
26503;DHT22;14177;51.520;6.764;2023-01-26T16:41:49;4.50;99.90
26503;DHT22;14177;51.520;6.764;2023-01-26T16:44:16;4.50;99.90
26503;DHT22;14177;51.520;6.764;2023-01-26T16:46:48;4.50;99.90
26503;DHT22;14177;51.520;6.764;2023-01-26T16:49:16;4.50;99.90
26503;DHT22;14177;51.520;6.764;2023-01-26T16:51:43;4.50;99.90
26503;DHT22;14177;51.520;6.764;2023-01-26T16:54:11;4.40;99.90
26503;DHT22;14177;51.520;6.764;2023-01-26T16:56:39;4.40;99.90
26503;DHT22;14177;51.520;6.764;2023-01-26T16:59:06;4.40;99.90
26503;DHT22;14177;51.520;6.764;2023-01-26T17:01:35;4.40;99.90
26503;DHT22;14177;51.520;6.764;2023-01-26T17:04:04;4.40;99.90
26503;DHT22;14177;51.520;6.764;2023-01-26T17:06:34;4.40;99.90
26503;DHT22;14177;51.520;6.764;2023-01-26T17:09:02;4.40;99.90
26503;DHT22;14177;51.520;6.764;2023-01-26T17:11:30;4.40;99.90
26503;DHT22;14177;51.520;6.764;2023-01-26T17:13:58;4.40;99.90
26503;DHT22;14177;51.520;6.764;2023-01-26T17:16:27;4.40;99.90
26503;DHT22;14177;51.520;6.764;2023-01-26T17:18:59;4.40;99.90
26503;DHT22;14177;51.520;6.764;2023-01-26T17:21:26;4.40;99.90
26503;DHT22;14177;51.520;6.764;2023-01-26T17:23:56;4.40;99.90
26503;DHT22;14177;51.520;6.764;2023-01-26T17:26:26;4.40;99.90
26503;DHT22;14177;51.520;6.764;2023-01-26T17:28:54;4.40;99.90
26503;DHT22;14177;51.520;6.764;2023-01-26T17:31:23;4.40;99.90
26503;DHT22;14177;51.520;6.764;2023-01-26T17:33:51;4.40;99.90
26503;DHT22;14177;51.520;6.764;2023-01-26T17:36:23;4.40;99.90
26503;DHT22;14177;51.520;6.764;2023-01-26T17:38:56;4.40;99.90
26503;DHT22;14177;51.520;6.764;2023-01-26T17:41:25;4.40;99.90
26503;DHT22;14177;51.520;6.764;2023-01-26T17:43:53;4.40;99.90
26503;DHT22;14177;51.520;6.764;2023-01-26T17:46:21;4.40;99.90
26503;DHT22;14177;51.520;6.764;2023-01-26T17:48:53;4.40;99.90
26503;DHT22;14177;51.520;6.764;2023-01-26T17:51:20;4.40;99.90
26503;DHT22;14177;51.520;6.764;2023-01-26T17:53:49;4.40;99.90
26503;DHT22;14177;51.520;6.764;2023-01-26T17:56:18;4.40;99.90
26503;DHT22;14177;51.520;6.764;2023-01-26T17:58:51;4.40;99.90
26503;DHT22;14177;51.520;6.764;2023-01-26T18:01:21;4.40;99.90
26503;DHT22;14177;51.520;6.764;2023-01-26T18:03:50;4.40;99.90
26503;DHT22;14177;51.520;6.764;2023-01-26T18:06:22;4.40;99.90
26503;DHT22;14177;51.520;6.764;2023-01-26T18:08:56;4.40;99.90
26503;DHT22;14177;51.520;6.764;2023-01-26T18:11:27;4.40;99.90
26503;DHT22;14177;51.520;6.764;2023-01-26T18:13:55;4.40;99.90
26503;DHT22;14177;51.520;6.764;2023-01-26T18:16:24;4.40;99.90
26503;DHT22;14177;51.520;6.764;2023-01-26T18:18:55;4.40;99.90
26503;DHT22;14177;51.520;6.764;2023-01-26T18:21:36;4.40;99.90
26503;DHT22;14177;51.520;6.764;2023-01-26T18:24:17;4.40;99.90
26503;DHT22;14177;51.520;6.764;2023-01-26T18:26:48;4.40;99.90
26503;DHT22;14177;51.520;6.764;2023-01-26T18:34:34;4.40;99.90
26503;DHT22;14177;51.520;6.764;2023-01-26T18:37:01;4.40;99.90
26503;DHT22;14177;51.520;6.764;2023-01-26T18:39:29;4.40;99.90
26503;DHT22;14177;51.520;6.764;2023-01-26T18:41:56;4.40;99.90
26503;DHT22;14177;51.520;6.764;2023-01-26T18:44:23;4.40;99.90
26503;DHT22;14177;51.520;6.764;2023-01-26T18:46:53;4.40;99.90
26503;DHT22;14177;51.520;6.764;2023-01-26T18:49:20;4.40;99.90